createdAt,value
2022-10-11T04:46:00.839Z,1012.51
2022-10-11T04:47:02.435Z,1012.52
2022-10-11T04:48:01.814Z,1012.52
2022-10-11T04:49:01.806Z,1012.53
2022-10-11T04:50:01.792Z,1012.54
2022-10-11T04:51:01.805Z,1012.55
2022-10-11T04:52:01.777Z,1012.55
2022-10-11T04:53:01.780Z,1012.57
2022-10-11T04:54:01.756Z,1012.58
2022-10-11T04:55:01.740Z,1012.59
2022-10-11T04:56:02.131Z,1012.60
2022-10-11T04:57:01.734Z,1012.61
2022-10-11T04:58:01.711Z,1012.62
2022-10-11T04:59:01.714Z,1012.63
2022-10-11T05:00:01.690Z,1012.64
2022-10-11T05:01:01.701Z,1012.63
2022-10-11T05:02:01.736Z,1012.63
2022-10-11T05:03:01.661Z,1012.62
2022-10-11T05:04:01.645Z,1012.63
2022-10-11T05:05:01.647Z,1012.64
2022-10-11T05:06:05.442Z,1012.65
2022-10-11T05:07:01.620Z,1012.65
2022-10-11T05:08:01.601Z,1012.66
2022-10-11T05:09:01.604Z,1012.66
2022-10-11T05:10:01.582Z,1012.65
2022-10-11T05:11:01.592Z,1012.65
2022-10-11T05:12:01.559Z,1012.65
2022-10-11T05:13:01.561Z,1012.65
2022-10-11T05:14:01.554Z,1012.65
2022-10-11T05:15:01.537Z,1012.66
2022-10-11T05:16:01.801Z,1012.66
2022-10-11T05:17:01.517Z,1012.67
2022-10-11T05:18:01.501Z,1012.68
2022-10-11T05:19:01.494Z,1012.69
2022-10-11T05:20:01.477Z,1012.70
2022-10-11T05:21:01.493Z,1012.71
2022-10-11T05:22:01.464Z,1012.72
2022-10-11T05:23:01.467Z,1012.72
2022-10-11T05:24:01.441Z,1012.72
2022-10-11T05:25:01.434Z,1012.72
2022-10-11T05:26:01.727Z,1012.72
2022-10-11T05:27:03.485Z,1012.74
2022-10-11T05:28:01.398Z,1012.75
2022-10-11T05:29:01.504Z,1012.75
2022-10-11T05:30:01.377Z,1012.76
2022-10-11T05:31:01.371Z,1012.77
2022-10-11T05:32:01.381Z,1012.77
2022-10-11T05:33:01.352Z,1012.77
2022-10-11T05:34:01.336Z,1012.77
2022-10-11T05:35:01.342Z,1012.77
2022-10-11T05:36:01.564Z,1012.79
2022-10-11T05:37:01.308Z,1012.80
2022-10-11T05:38:01.298Z,1012.81
2022-10-11T05:39:01.288Z,1012.82
2022-10-11T05:40:01.271Z,1012.83
2022-10-11T05:41:01.279Z,1012.85
2022-10-11T05:42:01.255Z,1012.86
2022-10-11T05:43:01.247Z,1012.87
2022-10-11T05:44:01.235Z,1012.87
2022-10-11T05:45:01.230Z,1012.87
2022-10-11T05:46:01.426Z,1012.87
2022-10-11T05:47:01.215Z,1012.88
2022-10-11T05:48:01.190Z,1012.89
2022-10-11T05:49:01.182Z,1012.90
2022-10-11T05:50:01.176Z,1012.91
2022-10-11T05:51:01.178Z,1012.91
2022-10-11T05:52:01.154Z,1012.92
2022-10-11T05:53:01.144Z,1012.93
2022-10-11T05:54:01.130Z,1012.95
2022-10-11T05:55:01.122Z,1012.96
2022-10-11T05:56:01.175Z,1012.98
2022-10-11T05:57:01.105Z,1012.99
2022-10-11T05:58:01.088Z,1013.00
2022-10-11T05:59:02.538Z,1013.01
2022-10-11T06:00:01.074Z,1013.01
2022-10-11T06:01:01.122Z,1013.02
2022-10-11T06:02:01.051Z,1013.02
2022-10-11T06:03:01.043Z,1013.03
2022-10-11T06:04:01.028Z,1013.04
2022-10-11T06:05:01.030Z,1013.04
2022-10-11T06:06:01.028Z,1013.05
2022-10-11T06:07:01.000Z,1013.06
2022-10-11T06:08:00.985Z,1013.06
2022-10-11T06:09:00.983Z,1013.07
2022-10-11T06:10:00.964Z,1013.08
2022-10-11T06:11:00.971Z,1013.09
2022-10-11T06:12:00.944Z,1013.10
2022-10-11T06:13:00.942Z,1013.11
2022-10-11T06:14:00.922Z,1013.12
2022-10-11T06:15:00.918Z,1013.13
2022-10-11T06:16:00.922Z,1013.15
2022-10-11T06:17:00.897Z,1013.16
2022-10-11T06:18:00.882Z,1013.18
2022-10-11T06:19:00.876Z,1013.19
2022-10-11T06:20:00.883Z,1013.20
2022-10-11T06:21:00.864Z,1013.20
2022-10-11T06:22:00.857Z,1013.21
2022-10-11T06:23:00.834Z,1013.22
2022-10-11T06:24:01.692Z,1013.23
2022-10-11T06:25:00.815Z,1013.23
2022-10-11T06:26:00.818Z,1013.24
2022-10-11T06:27:00.848Z,1013.25
2022-10-11T06:28:00.783Z,1013.26
2022-10-11T06:29:00.854Z,1013.28
2022-10-11T06:30:00.764Z,1013.29
2022-10-11T06:31:00.768Z,1013.29
2022-10-11T06:32:00.736Z,1013.31
2022-10-11T06:33:04.571Z,1013.32
2022-10-11T06:34:00.716Z,1013.33
2022-10-11T06:35:00.738Z,1013.34
2022-10-11T06:36:00.700Z,1013.35
2022-10-11T06:37:00.692Z,1013.36
2022-10-11T06:38:00.673Z,1013.38
2022-10-11T06:39:00.678Z,1013.40
2022-10-11T06:40:00.673Z,1013.41
2022-10-11T06:41:00.646Z,1013.42
2022-10-11T06:42:00.661Z,1013.43
2022-10-11T06:43:00.637Z,1013.43
2022-10-11T06:44:00.624Z,1013.44
2022-10-11T06:45:00.621Z,1013.44
2022-10-11T06:46:00.597Z,1013.45
2022-10-11T06:47:00.583Z,1013.47
2022-10-11T06:48:00.571Z,1013.49
2022-10-11T06:49:00.564Z,1013.50
2022-10-11T06:50:00.551Z,1013.50
2022-10-11T06:51:00.855Z,1013.51
2022-10-11T06:52:00.531Z,1013.50
2022-10-11T06:53:00.522Z,1013.51
2022-10-11T06:54:00.505Z,1013.53
2022-10-11T06:55:00.502Z,1013.55
2022-10-11T06:56:00.502Z,1013.57
2022-10-11T06:57:00.491Z,1013.58
2022-10-11T06:58:00.465Z,1013.60
2022-10-11T06:59:00.460Z,1013.61
2022-10-11T07:00:00.447Z,1013.62
2022-10-11T07:01:00.552Z,1013.63
2022-10-11T07:02:00.428Z,1013.64
2022-10-11T07:03:00.417Z,1013.64
2022-10-11T07:04:00.419Z,1013.63
2022-10-11T07:05:00.399Z,1013.63
2022-10-11T07:06:02.621Z,1013.64
2022-10-11T07:07:00.482Z,1013.65
2022-10-11T07:08:00.362Z,1013.67
2022-10-11T07:09:00.363Z,1013.69
2022-10-11T07:10:00.381Z,1013.72
2022-10-11T07:11:00.338Z,1013.75
2022-10-11T07:12:00.320Z,1013.77
2022-10-11T07:13:00.317Z,1013.78
2022-10-11T07:14:00.308Z,1013.79
2022-10-11T07:15:00.318Z,1013.79
2022-10-11T07:16:00.282Z,1013.78
2022-10-11T07:17:00.272Z,1013.79
2022-10-11T07:18:00.260Z,1013.80
2022-10-11T07:19:01.099Z,1013.82
2022-10-11T07:20:00.248Z,1013.83
2022-10-11T07:21:00.246Z,1013.84
2022-10-11T07:22:00.215Z,1013.85
2022-10-11T07:23:00.211Z,1013.86
2022-10-11T07:24:00.214Z,1013.88
2022-10-11T07:25:00.287Z,1013.90
2022-10-11T07:26:00.189Z,1013.92
2022-10-11T07:27:00.172Z,1013.94
2022-10-11T07:28:00.180Z,1013.94
2022-10-11T07:29:00.255Z,1013.95
2022-10-11T07:30:00.136Z,1013.96
2022-10-11T07:31:00.141Z,1013.96
2022-10-11T07:32:00.112Z,1013.97
2022-10-11T07:33:00.114Z,1013.98
2022-10-11T07:34:00.088Z,1013.99
2022-10-11T07:35:00.105Z,1014.01
2022-10-11T07:36:00.083Z,1014.03
2022-10-11T07:37:00.087Z,1014.05
2022-10-11T07:38:00.068Z,1014.06
2022-10-11T07:39:00.062Z,1014.06
2022-10-11T07:40:00.027Z,1014.05
2022-10-11T07:41:00.034Z,1014.05
2022-10-11T07:42:00.008Z,1014.04
2022-10-11T07:42:59.998Z,1014.05
2022-10-11T07:43:59.985Z,1014.05
2022-10-11T07:44:59.976Z,1014.06
2022-10-11T07:45:59.995Z,1014.06
2022-10-11T07:46:59.988Z,1014.07
2022-10-11T07:47:59.950Z,1014.08
2022-10-11T07:48:59.940Z,1014.08
2022-10-11T07:49:59.922Z,1014.08
2022-10-11T07:50:59.927Z,1014.07
2022-10-11T07:51:59.922Z,1014.06
2022-10-11T07:52:59.897Z,1014.06
2022-10-11T07:54:04.679Z,1014.04
2022-10-11T07:54:59.873Z,1014.05
2022-10-11T07:55:59.885Z,1014.05
2022-10-11T07:56:59.851Z,1014.06
2022-10-11T07:57:59.841Z,1014.07
2022-10-11T07:58:59.861Z,1014.07
2022-10-11T07:59:59.821Z,1014.07
2022-10-11T08:00:59.875Z,1014.07
2022-10-11T08:01:59.918Z,1014.06
2022-10-11T08:02:59.813Z,1014.06
2022-10-11T08:03:59.783Z,1014.04
2022-10-11T08:04:59.766Z,1014.04
2022-10-11T08:05:59.776Z,1014.04
2022-10-11T08:06:59.754Z,1014.05
2022-10-11T08:07:59.737Z,1014.06
2022-10-11T08:08:59.720Z,1014.07
2022-10-11T08:09:59.714Z,1014.09
2022-10-11T08:10:59.733Z,1014.10
2022-10-11T08:11:59.705Z,1014.11
2022-10-11T08:13:04.269Z,1014.13
2022-10-11T08:13:59.720Z,1014.13
2022-10-11T08:14:59.670Z,1014.13
2022-10-11T08:15:59.661Z,1014.14
2022-10-11T08:16:59.633Z,1014.15
2022-10-11T08:17:59.648Z,1014.16
2022-10-11T08:18:59.610Z,1014.17
2022-10-11T08:19:59.618Z,1014.18
2022-10-11T08:20:59.606Z,1014.18
2022-10-11T08:21:59.593Z,1014.19
2022-10-11T08:22:59.585Z,1014.19
2022-10-11T08:23:59.563Z,1014.20
2022-10-11T08:24:59.547Z,1014.21
2022-10-11T08:25:59.556Z,1014.21
2022-10-11T08:26:59.526Z,1014.21
2022-10-11T08:27:59.519Z,1014.23
2022-10-11T08:28:59.638Z,1014.25
2022-10-11T08:29:59.515Z,1014.26
2022-10-11T08:30:59.497Z,1014.27
2022-10-11T08:31:59.477Z,1014.28
2022-10-11T08:32:59.470Z,1014.27
2022-10-11T08:33:59.461Z,1014.25
2022-10-11T08:34:59.460Z,1014.24
2022-10-11T08:35:59.441Z,1014.23
2022-10-11T08:36:59.424Z,1014.23
2022-10-11T08:37:59.428Z,1014.23
2022-10-11T08:38:59.598Z,1014.23
2022-10-11T08:39:59.410Z,1014.25
2022-10-11T08:40:59.384Z,1014.26
2022-10-11T08:41:59.376Z,1014.26
2022-10-11T08:42:59.360Z,1014.26
2022-10-11T08:43:59.358Z,1014.26
2022-10-11T08:45:10.615Z,1014.25
2022-10-11T08:45:59.339Z,1014.25
2022-10-11T08:47:00.513Z,1014.24
2022-10-11T08:47:59.318Z,1014.24
2022-10-11T08:48:59.299Z,1014.25
2022-10-11T08:49:59.314Z,1014.27
2022-10-11T08:50:59.278Z,1014.28
2022-10-11T08:51:59.266Z,1014.31
2022-10-11T08:52:59.325Z,1014.32
2022-10-11T08:54:01.389Z,1014.33
2022-10-11T08:54:59.254Z,1014.32
2022-10-11T08:55:59.223Z,1014.31
2022-10-11T08:56:59.266Z,1014.29
2022-10-11T08:57:59.213Z,1014.29
2022-10-11T08:58:59.186Z,1014.29
2022-10-11T08:59:59.199Z,1014.30
2022-10-11T09:00:59.170Z,1014.31
2022-10-11T09:01:59.320Z,1014.31
2022-10-11T09:03:14.203Z,1014.31
2022-10-11T09:03:59.144Z,1014.32
2022-10-11T09:04:59.150Z,1014.32
2022-10-11T09:05:59.121Z,1014.32
2022-10-11T09:07:03.874Z,1014.30
2022-10-11T09:07:59.103Z,1014.29
2022-10-11T09:08:59.704Z,1014.27
2022-10-11T09:09:59.089Z,1014.26
2022-10-11T09:10:59.063Z,1014.26
2022-10-11T09:11:59.062Z,1014.26
2022-10-11T09:12:59.041Z,1014.26
2022-10-11T09:13:59.039Z,1014.27
2022-10-11T09:14:59.047Z,1014.27
2022-10-11T09:15:59.012Z,1014.26
2022-10-11T09:16:59.053Z,1014.25
2022-10-11T09:17:58.993Z,1014.25
2022-10-11T09:18:58.980Z,1014.23
2022-10-11T09:19:58.985Z,1014.22
2022-10-11T09:20:58.968Z,1014.21
2022-10-11T09:21:58.966Z,1014.23
2022-10-11T09:22:58.941Z,1014.24
2022-10-11T09:23:58.937Z,1014.26
2022-10-11T09:24:58.931Z,1014.26
2022-10-11T09:25:58.921Z,1014.26
2022-10-11T09:26:58.909Z,1014.25
2022-10-11T09:28:02.786Z,1014.24
2022-10-11T09:29:01.483Z,1014.23
2022-10-11T09:29:58.875Z,1014.23
2022-10-11T09:30:58.901Z,1014.22
2022-10-11T09:31:58.873Z,1014.22
2022-10-11T09:32:58.830Z,1014.24
2022-10-11T09:33:58.836Z,1014.25
2022-10-11T09:34:58.809Z,1014.25
2022-10-11T09:35:58.813Z,1014.26
2022-10-11T09:36:58.802Z,1014.27
2022-10-11T09:37:58.783Z,1014.27
2022-10-11T09:39:01.820Z,1014.26
2022-10-11T09:39:58.769Z,1014.26
2022-10-11T09:40:58.748Z,1014.25
2022-10-11T09:41:58.758Z,1014.25
2022-10-11T09:42:58.732Z,1014.26
2022-10-11T09:43:58.718Z,1014.27
2022-10-11T09:44:58.710Z,1014.29
2022-10-11T09:45:58.698Z,1014.28
2022-10-11T09:46:58.696Z,1014.27
2022-10-11T09:47:58.685Z,1014.26
2022-10-11T09:48:58.664Z,1014.26
2022-10-11T09:49:58.653Z,1014.25
2022-10-11T09:50:58.642Z,1014.25
2022-10-11T09:51:58.649Z,1014.25
2022-10-11T09:52:58.620Z,1014.25
2022-10-11T09:53:58.614Z,1014.25
2022-10-11T09:54:58.615Z,1014.26
2022-10-11T09:55:58.588Z,1014.27
2022-10-11T09:56:58.590Z,1014.25
2022-10-11T09:57:58.577Z,1014.25
2022-10-11T09:58:58.556Z,1014.25
2022-10-11T09:59:58.554Z,1014.25
2022-10-11T10:00:58.539Z,1014.24
2022-10-11T10:01:58.645Z,1014.26
2022-10-11T10:02:58.561Z,1014.25
2022-10-11T10:03:58.505Z,1014.26
2022-10-11T10:04:58.491Z,1014.27
2022-10-11T10:05:58.524Z,1014.27
2022-10-11T10:06:58.485Z,1014.27
2022-10-11T10:08:02.847Z,1014.26
2022-10-11T10:08:58.453Z,1014.26
2022-10-11T10:09:58.477Z,1014.26
2022-10-11T10:10:59.671Z,1014.25
2022-10-11T10:11:58.433Z,1014.26
2022-10-11T10:12:58.411Z,1014.27
2022-10-11T10:13:58.396Z,1014.27
2022-10-11T10:14:58.381Z,1014.28
2022-10-11T10:15:58.386Z,1014.28
2022-10-11T10:16:58.375Z,1014.28
2022-10-11T10:17:58.358Z,1014.27
2022-10-11T10:18:58.338Z,1014.25
2022-10-11T10:19:58.334Z,1014.25
2022-10-11T10:20:58.318Z,1014.25
2022-10-11T10:21:58.326Z,1014.26
2022-10-11T10:22:58.296Z,1014.26
2022-10-11T10:23:58.307Z,1014.26
2022-10-11T10:24:58.277Z,1014.26
2022-10-11T10:25:58.275Z,1014.25
2022-10-11T10:26:58.275Z,1014.25
2022-10-11T10:27:58.269Z,1014.26
2022-10-11T10:28:58.392Z,1014.26
2022-10-11T10:29:58.229Z,1014.26
2022-10-11T10:30:58.216Z,1014.27
2022-10-11T10:32:15.142Z,1014.28
2022-10-11T10:32:58.212Z,1014.29
2022-10-11T10:33:58.186Z,1014.30
2022-10-11T10:34:58.174Z,1014.29
2022-10-11T10:35:58.167Z,1014.29
2022-10-11T10:36:58.153Z,1014.29
2022-10-11T10:37:58.165Z,1014.28
2022-10-11T10:38:58.129Z,1014.29
2022-10-11T10:39:58.137Z,1014.29
2022-10-11T10:40:58.114Z,1014.28
2022-10-11T10:41:58.105Z,1014.28
2022-10-11T10:42:58.103Z,1014.28
2022-10-11T10:43:58.084Z,1014.27
2022-10-11T10:44:58.067Z,1014.27
2022-10-11T10:45:58.062Z,1014.28
2022-10-11T10:46:58.050Z,1014.28
2022-10-11T10:47:58.061Z,1014.28
2022-10-11T10:49:58.033Z,1014.29
2022-10-11T10:50:58.056Z,1014.29
2022-10-11T10:51:58.071Z,1014.28
2022-10-11T10:52:58.016Z,1014.27
2022-10-11T10:53:57.982Z,1014.27
2022-10-11T10:54:57.984Z,1014.27
2022-10-11T10:55:57.984Z,1014.26
2022-10-11T10:56:57.957Z,1014.27
2022-10-11T10:57:57.942Z,1014.25
2022-10-11T10:58:57.925Z,1014.26
2022-10-11T10:59:57.925Z,1014.27
2022-10-11T11:00:57.907Z,1014.28
2022-10-11T11:02:06.812Z,1014.28
2022-10-11T11:02:57.973Z,1014.28
2022-10-11T11:03:57.878Z,1014.28
2022-10-11T11:05:57.873Z,1014.25
2022-10-11T11:06:57.858Z,1014.23
2022-10-11T11:07:57.837Z,1014.23
2022-10-11T11:08:57.826Z,1014.23
2022-10-11T11:09:58.050Z,1014.22
2022-10-11T11:10:57.801Z,1014.21
2022-10-11T11:11:57.905Z,1014.21
2022-10-11T11:12:57.782Z,1014.20
2022-10-11T11:13:57.774Z,1014.18
2022-10-11T11:14:57.761Z,1014.17
2022-10-11T11:15:57.753Z,1014.16
2022-10-11T11:16:57.768Z,1014.17
2022-10-11T11:17:57.751Z,1014.17
2022-10-11T11:18:57.717Z,1014.18
2022-10-11T11:19:57.713Z,1014.19
2022-10-11T11:20:57.696Z,1014.19
2022-10-11T11:21:57.791Z,1014.20
2022-10-11T11:22:57.692Z,1014.20
2022-10-11T11:23:57.672Z,1014.21
2022-10-11T11:24:57.670Z,1014.22
2022-10-11T11:25:57.678Z,1014.22
2022-10-11T11:26:57.647Z,1014.23
2022-10-11T11:27:57.633Z,1014.23
2022-10-11T11:28:57.637Z,1014.23
2022-10-11T11:29:57.609Z,1014.25
2022-10-11T11:30:57.594Z,1014.23
2022-10-11T11:31:57.604Z,1014.23
2022-10-11T11:32:57.578Z,1014.24
2022-10-11T11:33:57.578Z,1014.21
2022-10-11T11:34:57.552Z,1014.20
2022-10-11T11:35:57.579Z,1014.22
2022-10-11T11:36:57.555Z,1014.20
2022-10-11T11:38:02.480Z,1014.20
2022-10-11T11:38:57.532Z,1014.20
2022-10-11T11:39:57.523Z,1014.17
2022-10-11T11:40:57.491Z,1014.15
2022-10-11T11:41:57.550Z,1014.13
2022-10-11T11:42:57.468Z,1014.11
2022-10-11T11:43:57.468Z,1014.11
2022-10-11T11:44:57.453Z,1014.09
2022-10-11T11:45:57.475Z,1014.07
2022-10-11T11:46:57.448Z,1014.06
2022-10-11T11:47:57.435Z,1014.05
2022-10-11T11:48:57.407Z,1014.07
2022-10-11T11:49:57.401Z,1014.07
2022-10-11T11:50:57.386Z,1014.08
2022-10-11T11:51:57.393Z,1014.06
2022-10-11T11:52:57.367Z,1014.07
2022-10-11T11:53:57.360Z,1014.08
2022-10-11T11:55:01.485Z,1014.08
2022-10-11T11:55:57.347Z,1014.07
2022-10-11T11:56:57.335Z,1014.08
2022-10-11T11:57:57.318Z,1014.07
2022-10-11T11:58:57.302Z,1014.07
2022-10-11T11:59:57.301Z,1014.06
2022-10-11T12:00:57.278Z,1014.06
2022-10-11T12:01:57.301Z,1014.05
2022-10-11T12:02:57.320Z,1014.05
2022-10-11T12:03:57.258Z,1014.05
2022-10-11T12:04:57.248Z,1014.04
2022-10-11T12:05:57.235Z,1014.04
2022-10-11T12:07:14.901Z,1014.03
2022-10-11T12:07:57.221Z,1014.02
2022-10-11T12:08:57.211Z,1014.02
2022-10-11T12:09:57.194Z,1014.02
2022-10-11T12:10:57.189Z,1014.02
2022-10-11T12:11:57.167Z,1014.02
2022-10-11T12:12:57.182Z,1014.02
2022-10-11T12:13:57.158Z,1014.03
2022-10-11T12:14:57.221Z,1014.00
2022-10-11T12:15:57.155Z,1014.00
2022-10-11T12:16:57.121Z,1014.02
2022-10-11T12:17:57.123Z,1014.01
2022-10-11T12:18:57.163Z,1014.00
2022-10-11T12:19:57.123Z,1013.99
2022-10-11T12:20:57.082Z,1013.98
2022-10-11T12:21:57.063Z,1013.97
2022-10-11T12:22:57.073Z,1013.97
2022-10-11T12:23:57.049Z,1013.95
2022-10-11T12:24:57.039Z,1013.95
2022-10-11T12:25:57.024Z,1013.95
2022-10-11T12:26:57.050Z,1013.95
2022-10-11T12:27:57.022Z,1013.93
2022-10-11T12:28:57.024Z,1013.94
2022-10-11T12:29:56.983Z,1013.93
2022-10-11T12:30:56.976Z,1013.93
2022-10-11T12:31:56.963Z,1013.92
2022-10-11T12:32:56.971Z,1013.93
2022-10-11T12:33:56.941Z,1013.93
2022-10-11T12:34:56.938Z,1013.93
2022-10-11T12:35:56.926Z,1013.93
2022-10-11T12:36:56.914Z,1013.93
2022-10-11T12:37:56.920Z,1013.91
2022-10-11T12:38:56.893Z,1013.90
2022-10-11T12:39:56.884Z,1013.87
2022-10-11T12:40:56.873Z,1013.85
2022-10-11T12:41:56.862Z,1013.84
2022-10-11T12:42:56.861Z,1013.84
2022-10-11T12:43:56.836Z,1013.83
2022-10-11T12:44:56.831Z,1013.82
2022-10-11T12:45:56.815Z,1013.81
2022-10-11T12:46:56.809Z,1013.82
2022-10-11T12:47:56.810Z,1013.81
2022-10-11T12:48:56.813Z,1013.80
2022-10-11T12:49:56.774Z,1013.80
2022-10-11T12:51:00.750Z,1013.79
2022-10-11T12:51:56.757Z,1013.78
2022-10-11T12:52:56.785Z,1013.78
2022-10-11T12:54:21.476Z,1013.78
2022-10-11T12:54:56.734Z,1013.77
2022-10-11T12:55:56.710Z,1013.76
2022-10-11T12:56:56.706Z,1013.76
2022-10-11T12:57:56.714Z,1013.74
2022-10-11T12:58:56.684Z,1013.74
2022-10-11T12:59:56.673Z,1013.74
2022-10-11T13:00:56.783Z,1013.74
2022-10-11T13:01:56.668Z,1013.73
2022-10-11T13:02:56.658Z,1013.72
2022-10-11T13:03:56.628Z,1013.70
2022-10-11T13:04:56.629Z,1013.70
2022-10-11T13:06:01.326Z,1013.69
2022-10-11T13:06:56.606Z,1013.65
2022-10-11T13:07:56.598Z,1013.64
2022-10-11T13:08:56.579Z,1013.63
2022-10-11T13:09:56.565Z,1013.64
2022-10-11T13:10:56.561Z,1013.64
2022-10-11T13:11:56.543Z,1013.65
2022-10-11T13:12:56.553Z,1013.65
2022-10-11T13:13:56.522Z,1013.65
2022-10-11T13:14:56.512Z,1013.65
2022-10-11T13:15:56.502Z,1013.64
2022-10-11T13:16:56.489Z,1013.63
2022-10-11T13:17:56.495Z,1013.62
2022-10-11T13:18:56.475Z,1013.61
2022-10-11T13:19:56.477Z,1013.61
2022-10-11T13:20:56.456Z,1013.60
2022-10-11T13:21:56.431Z,1013.60
2022-10-11T13:22:56.426Z,1013.60
2022-10-11T13:23:56.441Z,1013.59
2022-10-11T13:24:56.414Z,1013.58
2022-10-11T13:25:56.396Z,1013.58
2022-10-11T13:26:56.420Z,1013.57
2022-10-11T13:27:56.372Z,1013.56
2022-10-11T13:28:56.470Z,1013.56
2022-10-11T13:29:56.354Z,1013.55
2022-10-11T13:30:56.348Z,1013.56
2022-10-11T13:31:56.329Z,1013.57
2022-10-11T13:32:56.322Z,1013.57
2022-10-11T13:33:56.323Z,1013.57
2022-10-11T13:35:56.284Z,1013.57
2022-10-11T13:36:56.286Z,1013.58
2022-10-11T13:37:56.274Z,1013.58
2022-10-11T13:38:56.270Z,1013.60
2022-10-11T13:39:56.240Z,1013.60
2022-10-11T13:40:56.263Z,1013.60
2022-10-11T13:41:56.222Z,1013.59
2022-10-11T13:42:56.238Z,1013.59
2022-10-11T13:43:56.215Z,1013.59
2022-10-11T13:44:56.194Z,1013.57
2022-10-11T13:45:56.178Z,1013.57
2022-10-11T13:46:56.173Z,1013.56
2022-10-11T13:47:56.165Z,1013.55
2022-10-11T13:48:56.168Z,1013.55
2022-10-11T13:49:56.139Z,1013.56
2022-10-11T13:50:56.269Z,1013.56
2022-10-11T13:51:56.118Z,1013.57
2022-10-11T13:52:56.120Z,1013.57
2022-10-11T13:53:56.112Z,1013.56
2022-10-11T13:54:56.100Z,1013.56
2022-10-11T13:55:56.079Z,1013.56
2022-10-11T13:56:56.117Z,1013.55
2022-10-11T13:57:56.058Z,1013.55
2022-10-11T13:58:56.064Z,1013.55
2022-10-11T13:59:56.046Z,1013.55
2022-10-11T14:00:56.157Z,1013.55
2022-10-11T14:01:56.082Z,1013.55
2022-10-11T14:02:56.051Z,1013.56
2022-10-11T14:03:55.991Z,1013.55
2022-10-11T14:04:55.990Z,1013.55
2022-10-11T14:05:55.986Z,1013.54
2022-10-11T14:06:55.964Z,1013.53
2022-10-11T14:07:55.967Z,1013.51
2022-10-11T14:08:55.950Z,1013.50
2022-10-11T14:09:55.930Z,1013.48
2022-10-11T14:10:58.558Z,1013.48
2022-10-11T14:11:55.941Z,1013.49
2022-10-11T14:12:55.924Z,1013.49
2022-10-11T14:13:55.894Z,1013.49
2022-10-11T14:14:55.881Z,1013.49
2022-10-11T14:15:55.870Z,1013.49
2022-10-11T14:16:55.881Z,1013.48
2022-10-11T14:17:55.854Z,1013.48
2022-10-11T14:18:55.856Z,1013.47
2022-10-11T14:20:00.923Z,1013.47
2022-10-11T14:20:55.833Z,1013.46
2022-10-11T14:21:55.808Z,1013.45
2022-10-11T14:22:55.805Z,1013.44
2022-10-11T14:23:55.822Z,1013.44
2022-10-11T14:24:55.788Z,1013.42
2022-10-11T14:25:55.765Z,1013.43
2022-10-11T14:26:55.755Z,1013.44
2022-10-11T14:27:55.740Z,1013.44
2022-10-11T14:28:55.742Z,1013.45
2022-10-11T14:30:23.550Z,1013.45
2022-10-11T14:30:55.731Z,1013.45
2022-10-11T14:31:55.706Z,1013.46
2022-10-11T14:32:55.692Z,1013.46
2022-10-11T14:33:55.694Z,1013.46
2022-10-11T14:34:55.673Z,1013.46
2022-10-11T14:35:55.655Z,1013.46
2022-10-11T14:36:55.650Z,1013.45
2022-10-11T14:37:55.629Z,1013.45
2022-10-11T14:38:55.643Z,1013.45
2022-10-11T14:39:55.613Z,1013.44
2022-10-11T14:40:55.606Z,1013.43
2022-10-11T14:41:55.594Z,1013.42
2022-10-11T14:42:55.582Z,1013.42
2022-10-11T14:43:55.579Z,1013.42
2022-10-11T14:44:55.562Z,1013.43
2022-10-11T14:45:55.550Z,1013.42
2022-10-11T14:46:55.542Z,1013.43
2022-10-11T14:47:55.523Z,1013.44
2022-10-11T14:48:56.723Z,1013.44
2022-10-11T14:49:55.504Z,1013.44
2022-10-11T14:50:55.496Z,1013.44
2022-10-11T14:51:55.481Z,1013.45
2022-10-11T14:52:55.475Z,1013.46
2022-10-11T14:53:55.474Z,1013.45
2022-10-11T14:54:55.454Z,1013.43
2022-10-11T14:55:55.441Z,1013.43
2022-10-11T14:56:55.432Z,1013.42
2022-10-11T14:57:55.416Z,1013.42
2022-10-11T14:58:55.426Z,1013.42
2022-10-11T14:59:55.397Z,1013.42
2022-10-11T15:00:55.394Z,1013.43
2022-10-11T15:01:55.449Z,1013.42
2022-10-11T15:02:55.367Z,1013.42
2022-10-11T15:03:55.367Z,1013.41
2022-10-11T15:04:55.349Z,1013.41
2022-10-11T15:05:55.330Z,1013.40
2022-10-11T15:06:55.337Z,1013.40
2022-10-11T15:07:55.316Z,1013.40
2022-10-11T15:08:55.324Z,1013.39
2022-10-11T15:09:55.300Z,1013.39
2022-10-11T15:10:55.279Z,1013.39
2022-10-11T15:11:55.274Z,1013.38
2022-10-11T15:12:55.267Z,1013.37
2022-10-11T15:13:55.301Z,1013.36
2022-10-11T15:14:55.238Z,1013.36
2022-10-11T15:15:55.235Z,1013.35
2022-10-11T15:16:55.247Z,1013.35
2022-10-11T15:17:55.205Z,1013.35
2022-10-11T15:18:55.206Z,1013.34
2022-10-11T15:19:55.180Z,1013.35
2022-10-11T15:20:55.177Z,1013.35
2022-10-11T15:21:55.160Z,1013.35
2022-10-11T15:22:55.161Z,1013.35
2022-10-11T15:23:55.156Z,1013.34
2022-10-11T15:24:55.136Z,1013.35
2022-10-11T15:25:55.122Z,1013.34
2022-10-11T15:26:55.111Z,1013.34
2022-10-11T15:27:55.126Z,1013.33
2022-10-11T15:28:55.223Z,1013.31
2022-10-11T15:29:55.081Z,1013.30
2022-10-11T15:30:55.069Z,1013.30
2022-10-11T15:31:55.062Z,1013.30
2022-10-11T15:32:55.098Z,1013.30
2022-10-11T15:33:55.046Z,1013.30
2022-10-11T15:34:55.055Z,1013.31
2022-10-11T15:35:55.033Z,1013.32
2022-10-11T15:36:55.041Z,1013.32
2022-10-11T15:37:54.996Z,1013.33
2022-10-11T15:38:54.983Z,1013.33
2022-10-11T15:39:54.979Z,1013.34
2022-10-11T15:40:54.965Z,1013.34
2022-10-11T15:41:54.948Z,1013.34
2022-10-11T15:42:54.945Z,1013.33
2022-10-11T15:43:54.928Z,1013.32
2022-10-11T15:44:54.931Z,1013.31
2022-10-11T15:45:54.975Z,1013.30
2022-10-11T15:46:54.899Z,1013.29
2022-10-11T15:47:54.881Z,1013.28
2022-10-11T15:48:54.876Z,1013.27
2022-10-11T15:49:54.874Z,1013.26
2022-10-11T15:50:54.852Z,1013.26
2022-10-11T15:51:54.848Z,1013.26
2022-10-11T15:52:54.838Z,1013.27
2022-10-11T15:53:54.823Z,1013.27
2022-10-11T15:54:54.826Z,1013.27
2022-10-11T15:55:54.802Z,1013.27
2022-10-11T15:56:54.794Z,1013.27
2022-10-11T15:57:54.796Z,1013.27
2022-10-11T15:58:54.771Z,1013.27
2022-10-11T15:59:54.768Z,1013.27
2022-10-11T16:00:54.770Z,1013.26
2022-10-11T16:01:54.848Z,1013.26
2022-10-11T16:02:54.729Z,1013.26
2022-10-11T16:03:54.724Z,1013.27
2022-10-11T16:04:54.719Z,1013.27
2022-10-11T16:05:54.699Z,1013.27
2022-10-11T16:06:54.685Z,1013.27
2022-10-11T16:07:54.678Z,1013.28
2022-10-11T16:08:54.667Z,1013.28
2022-10-11T16:09:54.665Z,1013.28
2022-10-11T16:10:54.646Z,1013.29
2022-10-11T16:11:54.640Z,1013.30
2022-10-11T16:12:54.624Z,1013.32
2022-10-11T16:13:54.606Z,1013.33
2022-10-11T16:14:54.619Z,1013.35
2022-10-11T16:15:54.591Z,1013.36
2022-10-11T16:16:54.587Z,1013.36
2022-10-11T16:17:54.570Z,1013.36
2022-10-11T16:18:54.560Z,1013.36
2022-10-11T16:19:54.569Z,1013.37
2022-10-11T16:20:54.541Z,1013.39
2022-10-11T16:21:54.528Z,1013.39
2022-10-11T16:22:54.524Z,1013.39
2022-10-11T16:23:54.507Z,1013.40
2022-10-11T16:24:54.497Z,1013.40
2022-10-11T16:25:54.501Z,1013.40
2022-10-11T16:26:54.473Z,1013.40
2022-10-11T16:27:54.474Z,1013.40
2022-10-11T16:28:54.516Z,1013.39
2022-10-11T16:29:54.446Z,1013.39
2022-10-11T16:30:54.448Z,1013.39
2022-10-11T16:31:54.427Z,1013.39
2022-10-11T16:32:54.410Z,1013.38
2022-10-11T16:33:54.406Z,1013.37
2022-10-11T16:34:54.396Z,1013.37
2022-10-11T16:35:54.395Z,1013.37
2022-10-11T16:36:54.371Z,1013.38
2022-10-11T16:37:54.363Z,1013.37
2022-10-11T16:38:54.348Z,1013.38
2022-10-11T16:39:54.339Z,1013.38
2022-10-11T16:40:54.345Z,1013.37
2022-10-11T16:41:54.318Z,1013.37
2022-10-11T16:42:54.307Z,1013.37
2022-10-11T16:43:54.302Z,1013.36
2022-10-11T16:44:54.285Z,1013.35
2022-10-11T16:45:54.289Z,1013.35
2022-10-11T16:46:54.264Z,1013.35
2022-10-11T16:47:54.257Z,1013.35
2022-10-11T16:48:54.241Z,1013.35
2022-10-11T16:49:54.237Z,1013.35
2022-10-11T16:50:54.239Z,1013.35
2022-10-11T16:51:54.217Z,1013.35
2022-10-11T16:52:54.201Z,1013.35
2022-10-11T16:53:54.195Z,1013.34